sensor_id;sensor_type;location;lat;lon;timestamp;pressure;altitude;pressure_sealevel;temperature
74321;BMP280;62738;45.772;4.804;2023-08-21T00:01:30;100052.09;;;32.44
74321;BMP280;62738;45.772;4.804;2023-08-21T00:03:56;100046.38;;;32.40
74321;BMP280;62738;45.772;4.804;2023-08-21T00:06:23;100047.81;;;32.36
74321;BMP280;62738;45.772;4.804;2023-08-21T00:08:50;100040.63;;;32.35
74321;BMP280;62738;45.772;4.804;2023-08-21T00:11:16;100049.25;;;32.33
74321;BMP280;62738;45.772;4.804;2023-08-21T00:13:43;100046.38;;;32.38
74321;BMP280;62738;45.772;4.804;2023-08-21T00:16:11;100040.63;;;32.42
74321;BMP280;62738;45.772;4.804;2023-08-21T00:18:38;100046.38;;;32.38
74321;BMP280;62738;45.772;4.804;2023-08-21T00:21:05;100037.78;;;32.33
74321;BMP280;62738;45.772;4.804;2023-08-21T00:23:32;100034.91;;;32.33
74321;BMP280;62738;45.772;4.804;2023-08-21T00:25:58;100044.97;;;32.34
74321;BMP280;62738;45.772;4.804;2023-08-21T00:28:25;100035.66;;;32.28
74321;BMP280;62738;45.772;4.804;2023-08-21T00:31:00;100031.38;;;32.27
74321;BMP280;62738;45.772;4.804;2023-08-21T00:33:28;100032.81;;;32.22
74321;BMP280;62738;45.772;4.804;2023-08-21T00:35:55;100039.25;;;32.22
74321;BMP280;62738;45.772;4.804;2023-08-21T00:38:22;100043.59;;;32.21
74321;BMP280;62738;45.772;4.804;2023-08-21T00:40:49;100043.59;;;32.17
74321;BMP280;62738;45.772;4.804;2023-08-21T00:43:16;100035.69;;;32.20
74321;BMP280;62738;45.772;4.804;2023-08-21T00:45:44;100045.72;;;32.17
74321;BMP280;62738;45.772;4.804;2023-08-21T00:48:13;100046.47;;;32.09
74321;BMP280;62738;45.772;4.804;2023-08-21T00:50:40;100041.50;;;31.94
74321;BMP280;62738;45.772;4.804;2023-08-21T00:53:08;100040.09;;;31.79
74321;BMP280;62738;45.772;4.804;2023-08-21T00:55:35;100045.81;;;31.77
74321;BMP280;62738;45.772;4.804;2023-08-21T00:58:02;100043.00;;;31.62
74321;BMP280;62738;45.772;4.804;2023-08-21T01:00:33;100045.84;;;31.50
74321;BMP280;62738;45.772;4.804;2023-08-21T01:03:29;100044.41;;;31.29
74321;BMP280;62738;45.772;4.804;2023-08-21T01:05:55;100046.53;;;31.23
74321;BMP280;62738;45.772;4.804;2023-08-21T01:08:38;100045.81;;;31.20
74321;BMP280;62738;45.772;4.804;2023-08-21T01:11:40;100045.75;;;30.90
74321;BMP280;62738;45.772;4.804;2023-08-21T01:16:53;100041.47;;;30.91
74321;BMP280;62738;45.772;4.804;2023-08-21T01:19:33;100046.50;;;30.98
74321;BMP280;62738;45.772;4.804;2023-08-21T01:22:02;100042.19;;;30.97
74321;BMP280;62738;45.772;4.804;2023-08-21T01:24:29;100042.94;;;31.08
74321;BMP280;62738;45.772;4.804;2023-08-21T01:26:55;100036.50;;;31.14
74321;BMP280;62738;45.772;4.804;2023-08-21T01:29:22;100040.09;;;31.06
74321;BMP280;62738;45.772;4.804;2023-08-21T01:32:00;100044.38;;;31.13
74321;BMP280;62738;45.772;4.804;2023-08-21T01:34:29;100037.94;;;31.11
74321;BMP280;62738;45.772;4.804;2023-08-21T01:37:03;100040.06;;;31.10
74321;BMP280;62738;45.772;4.804;2023-08-21T01:39:30;100034.34;;;31.10
74321;BMP280;62738;45.772;4.804;2023-08-21T01:41:57;100037.94;;;31.15
74321;BMP280;62738;45.772;4.804;2023-08-21T01:44:24;100042.28;;;31.30
74321;BMP280;62738;45.772;4.804;2023-08-21T01:46:53;100040.09;;;31.16
74321;BMP280;62738;45.772;4.804;2023-08-21T01:49:20;100037.94;;;31.11
74321;BMP280;62738;45.772;4.804;2023-08-21T01:51:46;100033.66;;;31.06
74321;BMP280;62738;45.772;4.804;2023-08-21T01:54:13;100041.50;;;31.09
74321;BMP280;62738;45.772;4.804;2023-08-21T01:56:40;100046.50;;;31.08
74321;BMP280;62738;45.772;4.804;2023-08-21T01:59:07;100043.66;;;31.11
74321;BMP280;62738;45.772;4.804;2023-08-21T02:01:33;100051.53;;;31.08
74321;BMP280;62738;45.772;4.804;2023-08-21T02:04:00;100051.53;;;31.12
74321;BMP280;62738;45.772;4.804;2023-08-21T02:06:27;100050.13;;;31.23
74321;BMP280;62738;45.772;4.804;2023-08-21T02:08:54;100053.75;;;31.36
74321;BMP280;62738;45.772;4.804;2023-08-21T02:11:20;100056.59;;;31.38
74321;BMP280;62738;45.772;4.804;2023-08-21T02:13:47;100058.00;;;31.21
74321;BMP280;62738;45.772;4.804;2023-08-21T02:16:14;100055.81;;;31.09
74321;BMP280;62738;45.772;4.804;2023-08-21T02:18:40;100052.97;;;31.03
74321;BMP280;62738;45.772;4.804;2023-08-21T02:21:07;100044.34;;;30.93
74321;BMP280;62738;45.772;4.804;2023-08-21T02:23:34;100050.81;;;31.01
74321;BMP280;62738;45.772;4.804;2023-08-21T02:26:00;100060.13;;;31.04
74321;BMP280;62738;45.772;4.804;2023-08-21T02:28:27;100063.72;;;31.07
74321;BMP280;62738;45.772;4.804;2023-08-21T02:30:54;100060.88;;;31.17
74321;BMP280;62738;45.772;4.804;2023-08-21T02:33:20;100070.19;;;31.17
74321;BMP280;62738;45.772;4.804;2023-08-21T02:35:47;100068.03;;;31.14
74321;BMP280;62738;45.772;4.804;2023-08-21T02:38:14;100062.31;;;31.14
74321;BMP280;62738;45.772;4.804;2023-08-21T02:40:40;100065.88;;;31.10
74321;BMP280;62738;45.772;4.804;2023-08-21T02:43:07;100064.44;;;30.99
74321;BMP280;62738;45.772;4.804;2023-08-21T02:45:34;100063.00;;;31.02
74321;BMP280;62738;45.772;4.804;2023-08-21T02:48:00;100071.56;;;30.88
74321;BMP280;62738;45.772;4.804;2023-08-21T02:50:27;100069.34;;;30.70
74321;BMP280;62738;45.772;4.804;2023-08-21T02:52:54;100070.06;;;30.67
74321;BMP280;62738;45.772;4.804;2023-08-21T02:55:20;100070.06;;;30.67
74321;BMP280;62738;45.772;4.804;2023-08-21T02:57:47;100063.63;;;30.70
74321;BMP280;62738;45.772;4.804;2023-08-21T03:00:14;100063.63;;;30.70
74321;BMP280;62738;45.772;4.804;2023-08-21T03:02:41;100060.06;;;30.74
74321;BMP280;62738;45.772;4.804;2023-08-21T03:05:11;100062.22;;;30.75
74321;BMP280;62738;45.772;4.804;2023-08-21T03:07:38;100072.97;;;30.85
74321;BMP280;62738;45.772;4.804;2023-08-21T03:10:06;100071.50;;;30.72
74321;BMP280;62738;45.772;4.804;2023-08-21T03:12:34;100072.22;;;30.70
74321;BMP280;62738;45.772;4.804;2023-08-21T03:15:01;100067.22;;;30.71
74321;BMP280;62738;45.772;4.804;2023-08-21T03:17:27;100070.09;;;30.75
74321;BMP280;62738;45.772;4.804;2023-08-21T03:19:54;100067.91;;;30.65
74321;BMP280;62738;45.772;4.804;2023-08-21T03:22:21;100067.88;;;30.63
74321;BMP280;62738;45.772;4.804;2023-08-21T03:24:47;100067.88;;;30.63
74321;BMP280;62738;45.772;4.804;2023-08-21T03:27:18;100073.63;;;30.61
74321;BMP280;62738;45.772;4.804;2023-08-21T03:29:45;100064.31;;;30.65
74321;BMP280;62738;45.772;4.804;2023-08-21T03:32:18;100075.03;;;30.58
74321;BMP280;62738;45.772;4.804;2023-08-21T03:34:44;100067.16;;;30.63
74321;BMP280;62738;45.772;4.804;2023-08-21T03:37:11;100072.84;;;30.45
74321;BMP280;62738;45.772;4.804;2023-08-21T03:39:38;100077.84;;;30.44
74321;BMP280;62738;45.772;4.804;2023-08-21T03:42:05;100080.63;;;30.34
74321;BMP280;62738;45.772;4.804;2023-08-21T03:44:32;100092.06;;;30.30
74321;BMP280;62738;45.772;4.804;2023-08-21T03:47:00;100088.97;;;30.00
74321;BMP280;62738;45.772;4.804;2023-08-21T03:49:26;100083.22;;;29.94
74321;BMP280;62738;45.772;4.804;2023-08-21T03:51:53;100094.63;;;29.88
74321;BMP280;62738;45.772;4.804;2023-08-21T03:54:19;100095.88;;;29.68
74321;BMP280;62738;45.772;4.804;2023-08-21T03:56:46;100098.78;;;29.70
74321;BMP280;62738;45.772;4.804;2023-08-21T03:59:13;100092.25;;;29.62
74321;BMP280;62738;45.772;4.804;2023-08-21T04:01:39;100100.13;;;29.61
74321;BMP280;62738;45.772;4.804;2023-08-21T04:04:06;100097.34;;;29.69
74321;BMP280;62738;45.772;4.804;2023-08-21T04:06:33;100096.63;;;29.71
74321;BMP280;62738;45.772;4.804;2023-08-21T04:09:00;100101.75;;;29.87
74321;BMP280;62738;45.772;4.804;2023-08-21T04:11:26;100101.78;;;29.85
74321;BMP280;62738;45.772;4.804;2023-08-21T04:13:55;100111.81;;;29.92
74321;BMP280;62738;45.772;4.804;2023-08-21T04:16:21;100107.56;;;29.97
74321;BMP280;62738;45.772;4.804;2023-08-21T04:18:48;100112.59;;;29.98
74321;BMP280;62738;45.772;4.804;2023-08-21T04:21:15;100121.13;;;29.94
74321;BMP280;62738;45.772;4.804;2023-08-21T04:23:41;100120.47;;;30.00
74321;BMP280;62738;45.772;4.804;2023-08-21T04:26:08;100119.00;;;29.97
74321;BMP280;62738;45.772;4.804;2023-08-21T04:28:37;100119.00;;;29.97
74321;BMP280;62738;45.772;4.804;2023-08-21T04:31:06;100121.91;;;30.01
74321;BMP280;62738;45.772;4.804;2023-08-21T04:33:34;100122.56;;;29.95
74321;BMP280;62738;45.772;4.804;2023-08-21T04:36:01;100126.91;;;30.02
74321;BMP280;62738;45.772;4.804;2023-08-21T04:38:27;100124.69;;;29.93
74321;BMP280;62738;45.772;4.804;2023-08-21T04:40:54;100138.94;;;29.87
74321;BMP280;62738;45.772;4.804;2023-08-21T04:43:21;100134.66;;;29.86
74321;BMP280;62738;45.772;4.804;2023-08-21T04:45:51;100136.81;;;29.89
74321;BMP280;62738;45.772;4.804;2023-08-21T04:48:22;100142.53;;;29.87
74321;BMP280;62738;45.772;4.804;2023-08-21T04:50:48;100151.84;;;29.88
74321;BMP280;62738;45.772;4.804;2023-08-21T04:53:15;100157.63;;;29.96
74321;BMP280;62738;45.772;4.804;2023-08-21T04:55:42;100153.31;;;29.93
74321;BMP280;62738;45.772;4.804;2023-08-21T04:58:09;100160.50;;;29.98
74321;BMP280;62738;45.772;4.804;2023-08-21T05:00:36;100154.72;;;29.90
74321;BMP280;62738;45.772;4.804;2023-08-21T05:03:03;100158.84;;;29.72
74321;BMP280;62738;45.772;4.804;2023-08-21T05:05:30;100168.06;;;29.65
74321;BMP280;62738;45.772;4.804;2023-08-21T05:07:56;100164.31;;;29.46
74321;BMP280;62738;45.772;4.804;2023-08-21T05:10:23;100165.63;;;29.39
74321;BMP280;62738;45.772;4.804;2023-08-21T05:12:50;100162.16;;;29.47
74321;BMP280;62738;45.772;4.804;2023-08-21T05:15:17;100171.53;;;29.53
74321;BMP280;62738;45.772;4.804;2023-08-21T05:17:43;100171.53;;;29.55
74321;BMP280;62738;45.772;4.804;2023-08-21T05:20:10;100173.78;;;29.65
74321;BMP280;62738;45.772;4.804;2023-08-21T05:22:40;100173.81;;;29.69
74321;BMP280;62738;45.772;4.804;2023-08-21T05:25:07;100178.81;;;29.68
74321;BMP280;62738;45.772;4.804;2023-08-21T05:27:34;100183.06;;;29.65
74321;BMP280;62738;45.772;4.804;2023-08-21T05:30:01;100180.84;;;29.58
74321;BMP280;62738;45.772;4.804;2023-08-21T05:32:27;100177.34;;;29.65
74321;BMP280;62738;45.772;4.804;2023-08-21T05:34:54;100176.75;;;29.73
74321;BMP280;62738;45.772;4.804;2023-08-21T05:37:21;100184.63;;;29.76
74321;BMP280;62738;45.772;4.804;2023-08-21T05:39:47;100183.28;;;29.86
74321;BMP280;62738;45.772;4.804;2023-08-21T05:42:15;100184.78;;;29.95
74321;BMP280;62738;45.772;4.804;2023-08-21T05:44:41;100179.84;;;30.01
74321;BMP280;62738;45.772;4.804;2023-08-21T05:47:08;100190.66;;;30.11
74321;BMP280;62738;45.772;4.804;2023-08-21T05:49:35;100190.69;;;30.17
74321;BMP280;62738;45.772;4.804;2023-08-21T05:52:02;100199.34;;;30.25
74321;BMP280;62738;45.772;4.804;2023-08-21T05:54:29;100195.09;;;30.28
74321;BMP280;62738;45.772;4.804;2023-08-21T05:56:57;100198.00;;;30.32
74321;BMP280;62738;45.772;4.804;2023-08-21T05:59:29;100194.50;;;30.42
74321;BMP280;62738;45.772;4.804;2023-08-21T06:01:56;100189.50;;;30.44
74321;BMP280;62738;45.772;4.804;2023-08-21T06:04:23;100198.81;;;30.45
74321;BMP280;62738;45.772;4.804;2023-08-21T06:06:50;100198.13;;;30.52
74321;BMP280;62738;45.772;4.804;2023-08-21T06:09:17;100194.53;;;30.50
74321;BMP280;62738;45.772;4.804;2023-08-21T06:11:44;100202.44;;;30.55
74321;BMP280;62738;45.772;4.804;2023-08-21T06:14:10;100198.88;;;30.59
74321;BMP280;62738;45.772;4.804;2023-08-21T06:16:37;100203.25;;;30.68
74321;BMP280;62738;45.772;4.804;2023-08-21T06:19:04;100198.25;;;30.70
74321;BMP280;62738;45.772;4.804;2023-08-21T06:21:30;100209.03;;;30.74
74321;BMP280;62738;45.772;4.804;2023-08-21T06:23:57;100206.16;;;30.80
74321;BMP280;62738;45.772;4.804;2023-08-21T06:26:24;100214.03;;;30.79
74321;BMP280;62738;45.772;4.804;2023-08-21T06:28:51;100203.31;;;30.80
74321;BMP280;62738;45.772;4.804;2023-08-21T06:31:18;100215.50;;;30.84
74321;BMP280;62738;45.772;4.804;2023-08-21T06:33:45;100208.28;;;30.69
74321;BMP280;62738;45.772;4.804;2023-08-21T06:36:11;100214.09;;;30.83
74321;BMP280;62738;45.772;4.804;2023-08-21T06:38:38;100209.88;;;31.00
74321;BMP280;62738;45.772;4.804;2023-08-21T06:41:04;100221.31;;;30.98
74321;BMP280;62738;45.772;4.804;2023-08-21T06:43:37;100216.31;;;30.97
74321;BMP280;62738;45.772;4.804;2023-08-21T06:46:07;100219.91;;;30.99
74321;BMP280;62738;45.772;4.804;2023-08-21T06:48:37;100216.34;;;31.09
74321;BMP280;62738;45.772;4.804;2023-08-21T06:51:04;100209.88;;;31.08
74321;BMP280;62738;45.772;4.804;2023-08-21T06:53:31;100211.31;;;31.10
74321;BMP280;62738;45.772;4.804;2023-08-21T06:55:58;100206.34;;;31.20
74321;BMP280;62738;45.772;4.804;2023-08-21T06:58:25;100211.41;;;31.24
74321;BMP280;62738;45.772;4.804;2023-08-21T07:00:53;100216.44;;;31.27
74321;BMP280;62738;45.772;4.804;2023-08-21T07:03:20;100207.81;;;31.21
74321;BMP280;62738;45.772;4.804;2023-08-21T07:05:53;100211.41;;;31.26
74321;BMP280;62738;45.772;4.804;2023-08-21T07:08:22;100218.59;;;31.27
74321;BMP280;62738;45.772;4.804;2023-08-21T07:10:49;100209.97;;;31.27
74321;BMP280;62738;45.772;4.804;2023-08-21T07:13:16;100211.44;;;31.34
74321;BMP280;62738;45.772;4.804;2023-08-21T07:15:42;100212.16;;;31.30
74321;BMP280;62738;45.772;4.804;2023-08-21T07:18:09;100212.88;;;31.35
74321;BMP280;62738;45.772;4.804;2023-08-21T07:20:36;100215.03;;;31.42
74321;BMP280;62738;45.772;4.804;2023-08-21T07:23:03;100215.03;;;31.42
74321;BMP280;62738;45.772;4.804;2023-08-21T07:25:29;100221.53;;;31.53
74321;BMP280;62738;45.772;4.804;2023-08-21T07:27:56;100210.78;;;31.55
74321;BMP280;62738;45.772;4.804;2023-08-21T07:30:23;100215.81;;;31.63
74321;BMP280;62738;45.772;4.804;2023-08-21T07:32:50;100217.25;;;31.60
74321;BMP280;62738;45.772;4.804;2023-08-21T07:35:16;100211.50;;;31.58
74321;BMP280;62738;45.772;4.804;2023-08-21T07:37:44;100207.19;;;31.63
74321;BMP280;62738;45.772;4.804;2023-08-21T07:40:11;100204.38;;;31.81
74321;BMP280;62738;45.772;4.804;2023-08-21T07:42:38;100214.38;;;31.72
74321;BMP280;62738;45.772;4.804;2023-08-21T07:45:05;100210.09;;;31.81
74321;BMP280;62738;45.772;4.804;2023-08-21T07:47:32;100212.25;;;31.81
74321;BMP280;62738;45.772;4.804;2023-08-21T07:50:02;100206.50;;;31.83
74321;BMP280;62738;45.772;4.804;2023-08-21T07:52:29;100201.53;;;31.95
74321;BMP280;62738;45.772;4.804;2023-08-21T07:54:55;100206.50;;;32.01
74321;BMP280;62738;45.772;4.804;2023-08-21T07:57:22;100203.63;;;32.09
74321;BMP280;62738;45.772;4.804;2023-08-21T07:59:49;100200.78;;;32.11
74321;BMP280;62738;45.772;4.804;2023-08-21T08:02:15;100208.66;;;32.14
74321;BMP280;62738;45.772;4.804;2023-08-21T08:04:43;100202.22;;;32.20
74321;BMP280;62738;45.772;4.804;2023-08-21T08:07:10;100211.56;;;32.26
74321;BMP280;62738;45.772;4.804;2023-08-21T08:09:37;100206.53;;;32.19
74321;BMP280;62738;45.772;4.804;2023-08-21T08:12:04;100209.41;;;32.23
74321;BMP280;62738;45.772;4.804;2023-08-21T08:14:34;100214.41;;;32.36
74321;BMP280;62738;45.772;4.804;2023-08-21T08:17:01;100202.91;;;32.28
74321;BMP280;62738;45.772;4.804;2023-08-21T08:19:28;100212.97;;;32.38
74321;BMP280;62738;45.772;4.804;2023-08-21T08:21:55;100204.31;;;32.50
74321;BMP280;62738;45.772;4.804;2023-08-21T08:24:21;100205.03;;;32.54
74321;BMP280;62738;45.772;4.804;2023-08-21T08:26:48;100194.19;;;32.77
74321;BMP280;62738;45.772;4.804;2023-08-21T08:29:15;100199.91;;;32.83
74321;BMP280;62738;45.772;4.804;2023-08-21T08:31:41;100195.59;;;32.86
74321;BMP280;62738;45.772;4.804;2023-08-21T08:34:08;100194.13;;;32.95
74321;BMP280;62738;45.772;4.804;2023-08-21T08:36:35;100185.47;;;32.93
74321;BMP280;62738;45.772;4.804;2023-08-21T08:39:02;100192.00;;;32.83
74321;BMP280;62738;45.772;4.804;2023-08-21T08:41:47;100183.44;;;32.71
74321;BMP280;62738;45.772;4.804;2023-08-21T08:44:15;100181.25;;;32.84
74321;BMP280;62738;45.772;4.804;2023-08-21T08:46:43;100182.69;;;32.87
74321;BMP280;62738;45.772;4.804;2023-08-21T08:49:09;100177.66;;;32.87
74321;BMP280;62738;45.772;4.804;2023-08-21T08:51:38;100182.59;;;32.99
74321;BMP280;62738;45.772;4.804;2023-08-21T08:54:06;100184.00;;;33.10
74321;BMP280;62738;45.772;4.804;2023-08-21T08:56:33;100189.00;;;33.16
74321;BMP280;62738;45.772;4.804;2023-08-21T08:59:00;100183.94;;;33.16
74321;BMP280;62738;45.772;4.804;2023-08-21T09:01:27;100178.81;;;33.33
74321;BMP280;62738;45.772;4.804;2023-08-21T09:03:54;100184.59;;;33.27
74321;BMP280;62738;45.772;4.804;2023-08-21T09:06:20;100173.69;;;33.49
74321;BMP280;62738;45.772;4.804;2023-08-21T09:08:54;100178.66;;;33.57
74321;BMP280;62738;45.772;4.804;2023-08-21T09:11:21;100175.72;;;33.63
74321;BMP280;62738;45.772;4.804;2023-08-21T09:13:49;100172.78;;;33.71
74321;BMP280;62738;45.772;4.804;2023-08-21T09:16:22;100173.47;;;33.80
74321;BMP280;62738;45.772;4.804;2023-08-21T09:18:54;100173.34;;;33.90
74321;BMP280;62738;45.772;4.804;2023-08-21T09:21:22;100173.31;;;33.94
74321;BMP280;62738;45.772;4.804;2023-08-21T09:23:57;100176.13;;;34.02
74321;BMP280;62738;45.772;4.804;2023-08-21T09:26:25;100173.19;;;34.08
74321;BMP280;62738;45.772;4.804;2023-08-21T09:28:52;100168.81;;;34.11
74321;BMP280;62738;45.772;4.804;2023-08-21T09:31:23;100155.09;;;34.15
74321;BMP280;62738;45.772;4.804;2023-08-21T09:34:00;100159.38;;;34.18
74321;BMP280;62738;45.772;4.804;2023-08-21T09:36:32;100153.56;;;34.26
74321;BMP280;62738;45.772;4.804;2023-08-21T09:38:59;100153.59;;;34.20
74321;BMP280;62738;45.772;4.804;2023-08-21T09:41:26;100156.50;;;34.18
74321;BMP280;62738;45.772;4.804;2023-08-21T09:43:58;100145.66;;;34.25
74321;BMP280;62738;45.772;4.804;2023-08-21T09:46:26;100154.19;;;34.33
74321;BMP280;62738;45.772;4.804;2023-08-21T09:48:53;100146.81;;;34.48
74321;BMP280;62738;45.772;4.804;2023-08-21T09:51:20;100147.50;;;34.51
74321;BMP280;62738;45.772;4.804;2023-08-21T09:53:50;100145.97;;;34.60
74321;BMP280;62738;45.772;4.804;2023-08-21T09:56:19;100147.31;;;34.69
74321;BMP280;62738;45.772;4.804;2023-08-21T09:58:50;100144.28;;;34.79
74321;BMP280;62738;45.772;4.804;2023-08-21T10:01:20;100142.03;;;34.83
74321;BMP280;62738;45.772;4.804;2023-08-21T10:03:48;100143.69;;;34.68
74321;BMP280;62738;45.772;4.804;2023-08-21T10:06:16;100135.09;;;34.64
74321;BMP280;62738;45.772;4.804;2023-08-21T10:08:53;100137.09;;;34.76
74321;BMP280;62738;45.772;4.804;2023-08-21T10:11:20;100135.75;;;34.69
74321;BMP280;62738;45.772;4.804;2023-08-21T10:13:48;100135.88;;;34.59
74321;BMP280;62738;45.772;4.804;2023-08-21T10:16:19;100126.50;;;34.62
74321;BMP280;62738;45.772;4.804;2023-08-21T10:18:48;100128.44;;;34.76
74321;BMP280;62738;45.772;4.804;2023-08-21T10:21:18;100132.69;;;34.83
74321;BMP280;62738;45.772;4.804;2023-08-21T10:23:47;100142.09;;;34.79
74321;BMP280;62738;45.772;4.804;2023-08-21T10:26:14;100117.25;;;35.02
74321;BMP280;62738;45.772;4.804;2023-08-21T10:28:51;100115.53;;;35.22
74321;BMP280;62738;45.772;4.804;2023-08-21T10:34:06;100109.34;;;35.46
74321;BMP280;62738;45.772;4.804;2023-08-21T10:37:24;100105.66;;;35.51
74321;BMP280;62738;45.772;4.804;2023-08-21T10:39:26;100101.81;;;35.63
74321;BMP280;62738;45.772;4.804;2023-08-21T10:42:01;100100.91;;;35.74
74321;BMP280;62738;45.772;4.804;2023-08-21T10:49:50;100089.94;;;35.83
74321;BMP280;62738;45.772;4.804;2023-08-21T10:52:20;100101.38;;;35.89
74321;BMP280;62738;45.772;4.804;2023-08-21T10:54:49;100091.91;;;35.92
74321;BMP280;62738;45.772;4.804;2023-08-21T10:57:16;100086.19;;;35.88
74321;BMP280;62738;45.772;4.804;2023-08-21T10:59:56;100088.56;;;35.78
74321;BMP280;62738;45.772;4.804;2023-08-21T11:02:26;100087.00;;;35.85
74321;BMP280;62738;45.772;4.804;2023-08-21T11:04:53;100090.41;;;35.93
74321;BMP280;62738;45.772;4.804;2023-08-21T11:07:19;100080.19;;;36.01
74321;BMP280;62738;45.772;4.804;2023-08-21T11:09:48;100084.59;;;35.96
74321;BMP280;62738;45.772;4.804;2023-08-21T11:12:17;100081.72;;;35.96
74321;BMP280;62738;45.772;4.804;2023-08-21T11:14:44;100077.97;;;36.03
74321;BMP280;62738;45.772;4.804;2023-08-21T11:17:11;100077.72;;;36.15
74321;BMP280;62738;45.772;4.804;2023-08-21T11:19:40;100079.22;;;36.14
74321;BMP280;62738;45.772;4.804;2023-08-21T11:22:07;100066.09;;;36.19
74321;BMP280;62738;45.772;4.804;2023-08-21T11:27:07;100073.13;;;36.28
74321;BMP280;62738;45.772;4.804;2023-08-21T11:29:42;100072.84;;;36.40
74321;BMP280;62738;45.772;4.804;2023-08-21T11:32:10;100068.75;;;36.29
74321;BMP280;62738;45.772;4.804;2023-08-21T11:34:38;100066.25;;;36.46
74321;BMP280;62738;45.772;4.804;2023-08-21T11:37:05;100070.25;;;36.59
74321;BMP280;62738;45.772;4.804;2023-08-21T11:40:06;100068.41;;;36.45
74321;BMP280;62738;45.772;4.804;2023-08-21T11:42:30;100061.03;;;36.52
74321;BMP280;62738;45.772;4.804;2023-08-21T11:44:58;100057.72;;;36.40
74321;BMP280;62738;45.772;4.804;2023-08-21T11:47:31;100060.13;;;36.60
74321;BMP280;62738;45.772;4.804;2023-08-21T11:50:04;100055.91;;;36.86
74321;BMP280;62738;45.772;4.804;2023-08-21T11:52:32;100062.97;;;36.93
74321;BMP280;62738;45.772;4.804;2023-08-21T11:54:59;100044.88;;;36.92
74321;BMP280;62738;45.772;4.804;2023-08-21T11:57:26;100040.88;;;37.10
74321;BMP280;62738;45.772;4.804;2023-08-21T11:59:55;100032.59;;;37.20
74321;BMP280;62738;45.772;4.804;2023-08-21T12:02:26;100038.78;;;37.33
74321;BMP280;62738;45.772;4.804;2023-08-21T12:05:06;100035.88;;;37.33
74321;BMP280;62738;45.772;4.804;2023-08-21T12:07:33;100037.53;;;37.26
74321;BMP280;62738;45.772;4.804;2023-08-21T12:10:00;100043.00;;;37.38
74321;BMP280;62738;45.772;4.804;2023-08-21T12:12:27;100041.16;;;37.53
74321;BMP280;62738;45.772;4.804;2023-08-21T12:14:54;100030.72;;;37.64
74321;BMP280;62738;45.772;4.804;2023-08-21T12:17:20;100032.78;;;37.68
74321;BMP280;62738;45.772;4.804;2023-08-21T12:19:47;100030.53;;;37.70
74321;BMP280;62738;45.772;4.804;2023-08-21T12:22:14;100022.03;;;37.89
74321;BMP280;62738;45.772;4.804;2023-08-21T12:24:40;100033.22;;;38.03
74321;BMP280;62738;45.772;4.804;2023-08-21T12:27:07;100023.00;;;37.79
74321;BMP280;62738;45.772;4.804;2023-08-21T12:29:34;100021.72;;;37.74
74321;BMP280;62738;45.772;4.804;2023-08-21T12:32:01;100021.31;;;37.88
74321;BMP280;62738;45.772;4.804;2023-08-21T12:34:29;100015.41;;;37.92
74321;BMP280;62738;45.772;4.804;2023-08-21T12:36:56;100015.88;;;38.01
74321;BMP280;62738;45.772;4.804;2023-08-21T12:39:23;100018.31;;;38.15
74321;BMP280;62738;45.772;4.804;2023-08-21T12:41:49;100017.25;;;38.27
74321;BMP280;62738;45.772;4.804;2023-08-21T12:44:16;100002.19;;;38.22
74321;BMP280;62738;45.772;4.804;2023-08-21T12:46:43;100023.03;;;38.04
74321;BMP280;62738;45.772;4.804;2023-08-21T12:49:10;100014.00;;;37.91
74321;BMP280;62738;45.772;4.804;2023-08-21T12:51:36;100013.38;;;38.11
74321;BMP280;62738;45.772;4.804;2023-08-21T12:54:04;100005.72;;;38.02
74321;BMP280;62738;45.772;4.804;2023-08-21T12:56:30;100004.84;;;38.05
74321;BMP280;62738;45.772;4.804;2023-08-21T12:58:57;100002.31;;;38.18
74321;BMP280;62738;45.772;4.804;2023-08-21T13:01:26;99997.75;;;38.25
74321;BMP280;62738;45.772;4.804;2023-08-21T13:03:52;99997.19;;;38.41
74321;BMP280;62738;45.772;4.804;2023-08-21T13:06:19;99990.94;;;38.10
74321;BMP280;62738;45.772;4.804;2023-08-21T13:08:46;100000.47;;;38.06
74321;BMP280;62738;45.772;4.804;2023-08-21T13:11:13;99993.41;;;38.01
74321;BMP280;62738;45.772;4.804;2023-08-21T13:13:39;99990.28;;;38.07
74321;BMP280;62738;45.772;4.804;2023-08-21T13:16:06;99993.03;;;38.13
74321;BMP280;62738;45.772;4.804;2023-08-21T13:18:33;99982.91;;;38.12
74321;BMP280;62738;45.772;4.804;2023-08-21T13:20:59;99986.44;;;37.92
74321;BMP280;62738;45.772;4.804;2023-08-21T13:23:28;99987.16;;;37.93
74321;BMP280;62738;45.772;4.804;2023-08-21T13:25:56;99978.50;;;37.91
74321;BMP280;62738;45.772;4.804;2023-08-21T13:28:24;99986.16;;;38.02
74321;BMP280;62738;45.772;4.804;2023-08-21T13:30:51;99978.47;;;38.15
74321;BMP280;62738;45.772;4.804;2023-08-21T13:33:17;99977.81;;;38.36
74321;BMP280;62738;45.772;4.804;2023-08-21T13:35:45;99971.75;;;38.44
74321;BMP280;62738;45.772;4.804;2023-08-21T13:38:12;99959.78;;;38.56
74321;BMP280;62738;45.772;4.804;2023-08-21T13:40:40;99969.00;;;38.62
74321;BMP280;62738;45.772;4.804;2023-08-21T13:43:09;99966.91;;;38.59
74321;BMP280;62738;45.772;4.804;2023-08-21T13:45:37;99966.56;;;38.69
74321;BMP280;62738;45.772;4.804;2023-08-21T13:48:06;99960.16;;;38.87
74321;BMP280;62738;45.772;4.804;2023-08-21T13:50:33;99954.09;;;38.95
74321;BMP280;62738;45.772;4.804;2023-08-21T13:53:00;99959.16;;;38.94
74321;BMP280;62738;45.772;4.804;2023-08-21T13:55:27;99948.41;;;38.91
74321;BMP280;62738;45.772;4.804;2023-08-21T13:57:53;99954.56;;;38.81
74321;BMP280;62738;45.772;4.804;2023-08-21T14:00:20;99943.09;;;38.56
74321;BMP280;62738;45.772;4.804;2023-08-21T14:02:47;99938.78;;;38.55
74321;BMP280;62738;45.772;4.804;2023-08-21T14:05:14;99932.34;;;38.73
74321;BMP280;62738;45.772;4.804;2023-08-21T14:07:41;99935.16;;;38.96
74321;BMP280;62738;45.772;4.804;2023-08-21T14:10:08;99937.13;;;39.01
74321;BMP280;62738;45.772;4.804;2023-08-21T14:12:35;99936.31;;;38.84
74321;BMP280;62738;45.772;4.804;2023-08-21T14:15:07;99931.22;;;38.64